sensor_id;sensor_type;location;lat;lon;timestamp;P1;durP1;ratioP1;P2;durP2;ratioP2
29546;SDS011;40782;47.264;11.330;2023-02-01T00:00:28;17.17;;;7.57;;
29546;SDS011;40782;47.264;11.330;2023-02-01T00:02:57;13.20;;;7.68;;
29546;SDS011;40782;47.264;11.330;2023-02-01T00:05:24;14.77;;;7.88;;
29546;SDS011;40782;47.264;11.330;2023-02-01T00:07:51;14.00;;;7.90;;
29546;SDS011;40782;47.264;11.330;2023-02-01T00:10:18;14.63;;;7.28;;
29546;SDS011;40782;47.264;11.330;2023-02-01T00:12:45;14.20;;;7.15;;
29546;SDS011;40782;47.264;11.330;2023-02-01T00:15:12;12.55;;;7.15;;
29546;SDS011;40782;47.264;11.330;2023-02-01T00:17:40;19.75;;;8.40;;
29546;SDS011;40782;47.264;11.330;2023-02-01T00:20:09;14.80;;;7.90;;
29546;SDS011;40782;47.264;11.330;2023-02-01T00:22:37;18.20;;;6.75;;
29546;SDS011;40782;47.264;11.330;2023-02-01T00:25:05;15.73;;;7.95;;
29546;SDS011;40782;47.264;11.330;2023-02-01T00:27:32;15.10;;;8.27;;
29546;SDS011;40782;47.264;11.330;2023-02-01T00:30:00;19.70;;;8.30;;
29546;SDS011;40782;47.264;11.330;2023-02-01T00:32:28;15.48;;;7.95;;
29546;SDS011;40782;47.264;11.330;2023-02-01T00:34:56;14.60;;;8.35;;
29546;SDS011;40782;47.264;11.330;2023-02-01T00:37:25;12.93;;;7.63;;
29546;SDS011;40782;47.264;11.330;2023-02-01T00:39:52;11.52;;;7.63;;
29546;SDS011;40782;47.264;11.330;2023-02-01T00:42:20;13.48;;;7.18;;
29546;SDS011;40782;47.264;11.330;2023-02-01T00:44:47;11.65;;;7.20;;
29546;SDS011;40782;47.264;11.330;2023-02-01T00:47:15;16.20;;;8.15;;
29546;SDS011;40782;47.264;11.330;2023-02-01T00:49:42;11.50;;;7.70;;
29546;SDS011;40782;47.264;11.330;2023-02-01T00:52:09;15.85;;;8.02;;
29546;SDS011;40782;47.264;11.330;2023-02-01T00:54:37;13.60;;;8.27;;
29546;SDS011;40782;47.264;11.330;2023-02-01T00:57:04;16.20;;;8.23;;
29546;SDS011;40782;47.264;11.330;2023-02-01T00:59:32;14.25;;;8.32;;
29546;SDS011;40782;47.264;11.330;2023-02-01T01:01:59;13.00;;;7.32;;
29546;SDS011;40782;47.264;11.330;2023-02-01T01:04:26;13.85;;;8.20;;
29546;SDS011;40782;47.264;11.330;2023-02-01T01:06:53;13.55;;;8.00;;
29546;SDS011;40782;47.264;11.330;2023-02-01T01:09:20;17.80;;;8.05;;
29546;SDS011;40782;47.264;11.330;2023-02-01T01:11:48;12.77;;;6.95;;
29546;SDS011;40782;47.264;11.330;2023-02-01T01:14:17;14.25;;;7.15;;
29546;SDS011;40782;47.264;11.330;2023-02-01T01:16:45;15.95;;;7.70;;
29546;SDS011;40782;47.264;11.330;2023-02-01T01:19:12;14.73;;;7.70;;
29546;SDS011;40782;47.264;11.330;2023-02-01T01:21:39;11.45;;;6.90;;
29546;SDS011;40782;47.264;11.330;2023-02-01T01:24:06;13.82;;;7.32;;
29546;SDS011;40782;47.264;11.330;2023-02-01T01:26:33;10.48;;;7.22;;
29546;SDS011;40782;47.264;11.330;2023-02-01T01:29:02;17.75;;;7.10;;
29546;SDS011;40782;47.264;11.330;2023-02-01T01:31:30;11.02;;;6.95;;
29546;SDS011;40782;47.264;11.330;2023-02-01T01:33:58;13.23;;;7.00;;
29546;SDS011;40782;47.264;11.330;2023-02-01T01:36:26;12.65;;;7.10;;
29546;SDS011;40782;47.264;11.330;2023-02-01T01:38:54;12.23;;;7.45;;
29546;SDS011;40782;47.264;11.330;2023-02-01T01:41:22;14.07;;;7.22;;
29546;SDS011;40782;47.264;11.330;2023-02-01T01:43:52;11.73;;;6.82;;
29546;SDS011;40782;47.264;11.330;2023-02-01T01:46:23;11.57;;;6.85;;
29546;SDS011;40782;47.264;11.330;2023-02-01T01:48:52;11.63;;;6.55;;
29546;SDS011;40782;47.264;11.330;2023-02-01T01:51:25;12.48;;;6.50;;
29546;SDS011;40782;47.264;11.330;2023-02-01T01:53:56;12.70;;;6.25;;
29546;SDS011;40782;47.264;11.330;2023-02-01T01:56:27;8.45;;;6.28;;
29546;SDS011;40782;47.264;11.330;2023-02-01T01:58:56;11.43;;;6.63;;
29546;SDS011;40782;47.264;11.330;2023-02-01T02:01:25;14.45;;;7.28;;
29546;SDS011;40782;47.264;11.330;2023-02-01T02:03:52;10.70;;;6.30;;
29546;SDS011;40782;47.264;11.330;2023-02-01T02:06:24;11.65;;;6.43;;
29546;SDS011;40782;47.264;11.330;2023-02-01T02:08:59;11.43;;;6.03;;
29546;SDS011;40782;47.264;11.330;2023-02-01T02:11:26;17.38;;;6.50;;
29546;SDS011;40782;47.264;11.330;2023-02-01T02:13:53;12.13;;;6.70;;
29546;SDS011;40782;47.264;11.330;2023-02-01T02:16:30;9.85;;;5.75;;
29546;SDS011;40782;47.264;11.330;2023-02-01T02:19:22;11.43;;;7.47;;
29546;SDS011;40782;47.264;11.330;2023-02-01T02:22:05;11.27;;;5.97;;
29546;SDS011;40782;47.264;11.330;2023-02-01T02:27:56;10.35;;;6.20;;
29546;SDS011;40782;47.264;11.330;2023-02-01T02:30:59;9.40;;;6.63;;
29546;SDS011;40782;47.264;11.330;2023-02-01T02:33:59;13.15;;;6.50;;
29546;SDS011;40782;47.264;11.330;2023-02-01T02:36:39;8.43;;;5.22;;
29546;SDS011;40782;47.264;11.330;2023-02-01T02:39:18;9.48;;;6.32;;
29546;SDS011;40782;47.264;11.330;2023-02-01T02:41:56;10.45;;;6.68;;
29546;SDS011;40782;47.264;11.330;2023-02-01T02:44:46;11.65;;;6.60;;
29546;SDS011;40782;47.264;11.330;2023-02-01T02:47:33;14.85;;;7.72;;
29546;SDS011;40782;47.264;11.330;2023-02-01T02:50:11;15.55;;;7.32;;
29546;SDS011;40782;47.264;11.330;2023-02-01T02:53:04;13.35;;;7.32;;
29546;SDS011;40782;47.264;11.330;2023-02-01T02:55:54;12.48;;;7.10;;
29546;SDS011;40782;47.264;11.330;2023-02-01T02:58:40;14.52;;;7.25;;
29546;SDS011;40782;47.264;11.330;2023-02-01T03:01:26;15.68;;;8.00;;
29546;SDS011;40782;47.264;11.330;2023-02-01T03:04:12;12.93;;;7.93;;
29546;SDS011;40782;47.264;11.330;2023-02-01T03:06:44;18.98;;;7.85;;
29546;SDS011;40782;47.264;11.330;2023-02-01T03:09:13;15.68;;;8.48;;
29546;SDS011;40782;47.264;11.330;2023-02-01T03:11:45;12.68;;;7.90;;
29546;SDS011;40782;47.264;11.330;2023-02-01T03:14:32;13.05;;;6.93;;
29546;SDS011;40782;47.264;11.330;2023-02-01T03:17:05;13.65;;;7.57;;
29546;SDS011;40782;47.264;11.330;2023-02-01T03:19:39;11.50;;;6.93;;
29546;SDS011;40782;47.264;11.330;2023-02-01T03:22:15;10.80;;;7.45;;
29546;SDS011;40782;47.264;11.330;2023-02-01T03:24:46;14.35;;;7.82;;
29546;SDS011;40782;47.264;11.330;2023-02-01T03:27:17;11.93;;;8.02;;
29546;SDS011;40782;47.264;11.330;2023-02-01T03:29:49;17.27;;;7.55;;
29546;SDS011;40782;47.264;11.330;2023-02-01T03:32:20;16.52;;;7.63;;
29546;SDS011;40782;47.264;11.330;2023-02-01T03:34:47;14.38;;;7.38;;
29546;SDS011;40782;47.264;11.330;2023-02-01T03:37:17;10.05;;;7.03;;
29546;SDS011;40782;47.264;11.330;2023-02-01T03:39:50;11.93;;;7.63;;
29546;SDS011;40782;47.264;11.330;2023-02-01T03:42:24;11.40;;;6.72;;
29546;SDS011;40782;47.264;11.330;2023-02-01T03:44:57;12.27;;;7.20;;
29546;SDS011;40782;47.264;11.330;2023-02-01T03:47:34;13.82;;;6.75;;
29546;SDS011;40782;47.264;11.330;2023-02-01T03:50:05;13.13;;;7.05;;
29546;SDS011;40782;47.264;11.330;2023-02-01T03:52:37;11.55;;;6.88;;
29546;SDS011;40782;47.264;11.330;2023-02-01T03:55:07;8.23;;;6.45;;
29546;SDS011;40782;47.264;11.330;2023-02-01T03:57:35;15.30;;;8.40;;
29546;SDS011;40782;47.264;11.330;2023-02-01T04:00:08;10.23;;;6.88;;
29546;SDS011;40782;47.264;11.330;2023-02-01T04:02:41;11.63;;;7.90;;
29546;SDS011;40782;47.264;11.330;2023-02-01T04:05:09;12.32;;;8.18;;
29546;SDS011;40782;47.264;11.330;2023-02-01T04:07:38;13.07;;;8.07;;
29546;SDS011;40782;47.264;11.330;2023-02-01T04:10:05;15.77;;;8.15;;
29546;SDS011;40782;47.264;11.330;2023-02-01T04:12:33;13.80;;;8.18;;
29546;SDS011;40782;47.264;11.330;2023-02-01T04:15:00;11.30;;;6.50;;
29546;SDS011;40782;47.264;11.330;2023-02-01T04:17:28;17.58;;;7.90;;
29546;SDS011;40782;47.264;11.330;2023-02-01T04:19:56;21.73;;;9.95;;
29546;SDS011;40782;47.264;11.330;2023-02-01T04:22:23;12.13;;;8.43;;
29546;SDS011;40782;47.264;11.330;2023-02-01T04:24:52;14.13;;;7.75;;
29546;SDS011;40782;47.264;11.330;2023-02-01T04:27:19;13.85;;;8.32;;
29546;SDS011;40782;47.264;11.330;2023-02-01T04:29:46;12.77;;;8.00;;
29546;SDS011;40782;47.264;11.330;2023-02-01T04:32:14;11.18;;;7.57;;
29546;SDS011;40782;47.264;11.330;2023-02-01T04:34:42;10.68;;;7.15;;
29546;SDS011;40782;47.264;11.330;2023-02-01T04:37:09;16.67;;;8.25;;
29546;SDS011;40782;47.264;11.330;2023-02-01T04:39:36;16.83;;;8.00;;
29546;SDS011;40782;47.264;11.330;2023-02-01T04:42:05;14.48;;;8.13;;
29546;SDS011;40782;47.264;11.330;2023-02-01T04:44:32;12.25;;;7.25;;
29546;SDS011;40782;47.264;11.330;2023-02-01T04:46:59;15.27;;;7.85;;
29546;SDS011;40782;47.264;11.330;2023-02-01T04:49:26;15.13;;;7.80;;
29546;SDS011;40782;47.264;11.330;2023-02-01T04:51:53;14.18;;;7.70;;
29546;SDS011;40782;47.264;11.330;2023-02-01T04:54:21;15.35;;;8.55;;
29546;SDS011;40782;47.264;11.330;2023-02-01T04:56:48;17.70;;;8.88;;
29546;SDS011;40782;47.264;11.330;2023-02-01T04:59:16;14.63;;;8.18;;
29546;SDS011;40782;47.264;11.330;2023-02-01T05:01:44;14.82;;;8.55;;
29546;SDS011;40782;47.264;11.330;2023-02-01T05:04:11;15.63;;;8.70;;
29546;SDS011;40782;47.264;11.330;2023-02-01T05:06:38;13.93;;;7.80;;
29546;SDS011;40782;47.264;11.330;2023-02-01T05:09:05;10.25;;;7.63;;
29546;SDS011;40782;47.264;11.330;2023-02-01T05:11:32;14.00;;;9.30;;
29546;SDS011;40782;47.264;11.330;2023-02-01T05:14:18;18.85;;;10.40;;
29546;SDS011;40782;47.264;11.330;2023-02-01T05:16:45;18.67;;;8.48;;
29546;SDS011;40782;47.264;11.330;2023-02-01T05:19:12;14.55;;;9.57;;
29546;SDS011;40782;47.264;11.330;2023-02-01T05:21:39;13.20;;;8.63;;
29546;SDS011;40782;47.264;11.330;2023-02-01T05:24:07;14.90;;;8.80;;
29546;SDS011;40782;47.264;11.330;2023-02-01T05:26:38;13.05;;;8.52;;
29546;SDS011;40782;47.264;11.330;2023-02-01T05:29:06;12.52;;;8.25;;
29546;SDS011;40782;47.264;11.330;2023-02-01T05:31:36;16.17;;;7.93;;
29546;SDS011;40782;47.264;11.330;2023-02-01T05:34:03;13.02;;;8.40;;
29546;SDS011;40782;47.264;11.330;2023-02-01T05:36:31;10.82;;;7.28;;
29546;SDS011;40782;47.264;11.330;2023-02-01T05:38:58;14.63;;;8.63;;
29546;SDS011;40782;47.264;11.330;2023-02-01T05:41:25;13.05;;;9.65;;
29546;SDS011;40782;47.264;11.330;2023-02-01T05:43:52;14.55;;;8.48;;
29546;SDS011;40782;47.264;11.330;2023-02-01T05:46:19;14.43;;;8.93;;
29546;SDS011;40782;47.264;11.330;2023-02-01T05:48:48;11.35;;;8.02;;
29546;SDS011;40782;47.264;11.330;2023-02-01T05:51:15;14.75;;;8.43;;
29546;SDS011;40782;47.264;11.330;2023-02-01T05:53:42;16.60;;;8.55;;
29546;SDS011;40782;47.264;11.330;2023-02-01T05:56:09;12.30;;;7.32;;
29546;SDS011;40782;47.264;11.330;2023-02-01T05:58:37;11.95;;;8.00;;
29546;SDS011;40782;47.264;11.330;2023-02-01T06:01:04;11.52;;;7.80;;
29546;SDS011;40782;47.264;11.330;2023-02-01T06:03:31;17.20;;;7.63;;
29546;SDS011;40782;47.264;11.330;2023-02-01T06:06:00;13.80;;;8.40;;
29546;SDS011;40782;47.264;11.330;2023-02-01T06:08:27;14.95;;;8.15;;
29546;SDS011;40782;47.264;11.330;2023-02-01T06:10:58;12.13;;;7.97;;
29546;SDS011;40782;47.264;11.330;2023-02-01T06:13:25;15.38;;;7.80;;
29546;SDS011;40782;47.264;11.330;2023-02-01T06:15:52;9.93;;;7.20;;
29546;SDS011;40782;47.264;11.330;2023-02-01T06:18:21;18.02;;;8.95;;
29546;SDS011;40782;47.264;11.330;2023-02-01T06:20:51;12.32;;;7.32;;
29546;SDS011;40782;47.264;11.330;2023-02-01T06:23:20;24.08;;;14.60;;
29546;SDS011;40782;47.264;11.330;2023-02-01T06:25:49;18.98;;;12.52;;
29546;SDS011;40782;47.264;11.330;2023-02-01T06:28:17;15.38;;;10.75;;
29546;SDS011;40782;47.264;11.330;2023-02-01T06:30:44;13.02;;;8.30;;
29546;SDS011;40782;47.264;11.330;2023-02-01T06:33:12;15.05;;;8.65;;
29546;SDS011;40782;47.264;11.330;2023-02-01T06:35:41;10.30;;;7.07;;
29546;SDS011;40782;47.264;11.330;2023-02-01T06:38:09;11.80;;;6.68;;
29546;SDS011;40782;47.264;11.330;2023-02-01T06:40:38;14.43;;;6.93;;
29546;SDS011;40782;47.264;11.330;2023-02-01T06:43:06;13.07;;;7.05;;
29546;SDS011;40782;47.264;11.330;2023-02-01T06:45:33;10.80;;;6.28;;
29546;SDS011;40782;47.264;11.330;2023-02-01T06:48:00;14.00;;;6.82;;
29546;SDS011;40782;47.264;11.330;2023-02-01T06:50:27;16.65;;;8.25;;
29546;SDS011;40782;47.264;11.330;2023-02-01T06:52:55;14.98;;;7.88;;
29546;SDS011;40782;47.264;11.330;2023-02-01T06:55:22;12.02;;;7.95;;
29546;SDS011;40782;47.264;11.330;2023-02-01T06:57:53;14.63;;;9.07;;
29546;SDS011;40782;47.264;11.330;2023-02-01T07:00:21;17.70;;;8.40;;
29546;SDS011;40782;47.264;11.330;2023-02-01T07:02:49;11.90;;;8.25;;
29546;SDS011;40782;47.264;11.330;2023-02-01T07:05:17;15.80;;;7.85;;
29546;SDS011;40782;47.264;11.330;2023-02-01T07:07:44;12.07;;;8.10;;
29546;SDS011;40782;47.264;11.330;2023-02-01T07:10:11;15.38;;;7.85;;
29546;SDS011;40782;47.264;11.330;2023-02-01T07:12:39;10.20;;;7.05;;
29546;SDS011;40782;47.264;11.330;2023-02-01T07:15:08;12.32;;;7.47;;
29546;SDS011;40782;47.264;11.330;2023-02-01T07:17:35;13.95;;;8.88;;
29546;SDS011;40782;47.264;11.330;2023-02-01T07:20:03;18.25;;;9.35;;
29546;SDS011;40782;47.264;11.330;2023-02-01T07:22:31;14.27;;;8.95;;
29546;SDS011;40782;47.264;11.330;2023-02-01T07:24:58;15.00;;;8.60;;
29546;SDS011;40782;47.264;11.330;2023-02-01T07:27:25;13.10;;;7.88;;
29546;SDS011;40782;47.264;11.330;2023-02-01T07:29:52;17.05;;;8.07;;
29546;SDS011;40782;47.264;11.330;2023-02-01T07:32:22;13.73;;;8.32;;
29546;SDS011;40782;47.264;11.330;2023-02-01T07:34:49;16.55;;;8.70;;
29546;SDS011;40782;47.264;11.330;2023-02-01T07:37:16;18.50;;;8.02;;
29546;SDS011;40782;47.264;11.330;2023-02-01T07:39:43;15.05;;;8.80;;
29546;SDS011;40782;47.264;11.330;2023-02-01T07:42:10;14.30;;;8.40;;
29546;SDS011;40782;47.264;11.330;2023-02-01T07:44:37;18.27;;;9.73;;
29546;SDS011;40782;47.264;11.330;2023-02-01T07:47:04;12.82;;;8.73;;
29546;SDS011;40782;47.264;11.330;2023-02-01T07:49:33;15.88;;;9.20;;
29546;SDS011;40782;47.264;11.330;2023-02-01T07:52:00;15.63;;;10.57;;
29546;SDS011;40782;47.264;11.330;2023-02-01T07:54:27;12.85;;;9.40;;
29546;SDS011;40782;47.264;11.330;2023-02-01T07:56:55;14.23;;;8.82;;
29546;SDS011;40782;47.264;11.330;2023-02-01T07:59:22;12.43;;;8.90;;
29546;SDS011;40782;47.264;11.330;2023-02-01T08:01:49;14.98;;;8.73;;
29546;SDS011;40782;47.264;11.330;2023-02-01T08:04:16;14.60;;;8.45;;
29546;SDS011;40782;47.264;11.330;2023-02-01T08:06:44;11.95;;;8.30;;
29546;SDS011;40782;47.264;11.330;2023-02-01T08:09:11;14.45;;;8.15;;
29546;SDS011;40782;47.264;11.330;2023-02-01T08:11:39;12.80;;;7.75;;
29546;SDS011;40782;47.264;11.330;2023-02-01T08:14:06;14.07;;;8.20;;
29546;SDS011;40782;47.264;11.330;2023-02-01T08:16:33;16.65;;;8.60;;
29546;SDS011;40782;47.264;11.330;2023-02-01T08:19:02;13.15;;;8.25;;
29546;SDS011;40782;47.264;11.330;2023-02-01T08:21:29;13.57;;;9.07;;
29546;SDS011;40782;47.264;11.330;2023-02-01T08:26:31;11.73;;;7.82;;
29546;SDS011;40782;47.264;11.330;2023-02-01T08:28:59;8.93;;;6.80;;
29546;SDS011;40782;47.264;11.330;2023-02-01T08:31:28;14.20;;;7.15;;
29546;SDS011;40782;47.264;11.330;2023-02-01T08:33:57;11.55;;;6.88;;
29546;SDS011;40782;47.264;11.330;2023-02-01T08:36:26;12.52;;;6.95;;
29546;SDS011;40782;47.264;11.330;2023-02-01T08:38:55;11.43;;;7.80;;
29546;SDS011;40782;47.264;11.330;2023-02-01T08:41:24;13.35;;;7.97;;
29546;SDS011;40782;47.264;11.330;2023-02-01T08:43:52;11.88;;;7.70;;
29546;SDS011;40782;47.264;11.330;2023-02-01T08:46:20;11.55;;;8.10;;
29546;SDS011;40782;47.264;11.330;2023-02-01T08:48:47;14.00;;;7.82;;
29546;SDS011;40782;47.264;11.330;2023-02-01T08:51:16;14.70;;;7.80;;
29546;SDS011;40782;47.264;11.330;2023-02-01T08:53:44;17.90;;;8.38;;
29546;SDS011;40782;47.264;11.330;2023-02-01T08:56:13;14.23;;;7.93;;
29546;SDS011;40782;47.264;11.330;2023-02-01T08:58:42;10.85;;;7.13;;
29546;SDS011;40782;47.264;11.330;2023-02-01T09:01:11;15.32;;;7.68;;
29546;SDS011;40782;47.264;11.330;2023-02-01T09:03:40;18.48;;;8.05;;
29546;SDS011;40782;47.264;11.330;2023-02-01T09:06:08;14.60;;;8.20;;
29546;SDS011;40782;47.264;11.330;2023-02-01T09:08:37;14.43;;;8.15;;
29546;SDS011;40782;47.264;11.330;2023-02-01T09:11:06;20.92;;;10.55;;
29546;SDS011;40782;47.264;11.330;2023-02-01T09:13:36;17.35;;;9.30;;
29546;SDS011;40782;47.264;11.330;2023-02-01T09:16:04;18.17;;;8.38;;
29546;SDS011;40782;47.264;11.330;2023-02-01T09:18:32;20.98;;;8.90;;
29546;SDS011;40782;47.264;11.330;2023-02-01T09:21:03;18.80;;;9.38;;
29546;SDS011;40782;47.264;11.330;2023-02-01T09:23:30;15.60;;;8.30;;
29546;SDS011;40782;47.264;11.330;2023-02-01T09:25:58;20.73;;;8.38;;
29546;SDS011;40782;47.264;11.330;2023-02-01T09:28:25;16.95;;;7.13;;
29546;SDS011;40782;47.264;11.330;2023-02-01T09:30:54;15.63;;;8.32;;
29546;SDS011;40782;47.264;11.330;2023-02-01T09:33:24;18.35;;;9.00;;
29546;SDS011;40782;47.264;11.330;2023-02-01T09:35:54;16.60;;;7.88;;
29546;SDS011;40782;47.264;11.330;2023-02-01T09:38:22;17.48;;;7.70;;
29546;SDS011;40782;47.264;11.330;2023-02-01T09:40:50;13.80;;;7.05;;
29546;SDS011;40782;47.264;11.330;2023-02-01T09:43:21;9.32;;;7.18;;
29546;SDS011;40782;47.264;11.330;2023-02-01T09:45:59;19.17;;;7.38;;
29546;SDS011;40782;47.264;11.330;2023-02-01T09:48:38;13.93;;;7.13;;
29546;SDS011;40782;47.264;11.330;2023-02-01T09:51:11;15.00;;;6.90;;
29546;SDS011;40782;47.264;11.330;2023-02-01T09:53:42;13.02;;;7.22;;
29546;SDS011;40782;47.264;11.330;2023-02-01T09:56:13;20.13;;;7.43;;
29546;SDS011;40782;47.264;11.330;2023-02-01T09:58:47;17.33;;;7.63;;
29546;SDS011;40782;47.264;11.330;2023-02-01T10:01:17;21.98;;;7.97;;
29546;SDS011;40782;47.264;11.330;2023-02-01T10:03:48;24.92;;;8.38;;
29546;SDS011;40782;47.264;11.330;2023-02-01T10:06:23;24.98;;;10.13;;
29546;SDS011;40782;47.264;11.330;2023-02-01T10:11:49;19.98;;;8.30;;
29546;SDS011;40782;47.264;11.330;2023-02-01T10:14:34;19.35;;;7.75;;
29546;SDS011;40782;47.264;11.330;2023-02-01T10:17:21;17.15;;;8.20;;
29546;SDS011;40782;47.264;11.330;2023-02-01T10:19:58;16.05;;;8.60;;
29546;SDS011;40782;47.264;11.330;2023-02-01T10:22:39;18.10;;;8.30;;
29546;SDS011;40782;47.264;11.330;2023-02-01T10:25:12;11.18;;;7.25;;
29546;SDS011;40782;47.264;11.330;2023-02-01T10:27:44;14.40;;;7.57;;
29546;SDS011;40782;47.264;11.330;2023-02-01T10:30:16;13.90;;;7.63;;
29546;SDS011;40782;47.264;11.330;2023-02-01T10:32:45;21.88;;;8.00;;
29546;SDS011;40782;47.264;11.330;2023-02-01T10:35:18;22.83;;;8.50;;
29546;SDS011;40782;47.264;11.330;2023-02-01T10:37:50;14.02;;;8.38;;
29546;SDS011;40782;47.264;11.330;2023-02-01T10:40:19;16.73;;;8.35;;
29546;SDS011;40782;47.264;11.330;2023-02-01T10:42:47;18.83;;;8.02;;
29546;SDS011;40782;47.264;11.330;2023-02-01T10:45:18;19.25;;;7.82;;
29546;SDS011;40782;47.264;11.330;2023-02-01T10:47:47;31.92;;;9.82;;
29546;SDS011;40782;47.264;11.330;2023-02-01T10:50:22;25.88;;;8.13;;
29546;SDS011;40782;47.264;11.330;2023-02-01T10:53:00;31.48;;;9.15;;
29546;SDS011;40782;47.264;11.330;2023-02-01T10:55:33;20.35;;;8.27;;
29546;SDS011;40782;47.264;11.330;2023-02-01T10:58:04;29.00;;;9.82;;
29546;SDS011;40782;47.264;11.330;2023-02-01T11:00:38;20.15;;;8.68;;
29546;SDS011;40782;47.264;11.330;2023-02-01T11:03:19;32.17;;;11.15;;
29546;SDS011;40782;47.264;11.330;2023-02-01T11:06:16;27.85;;;11.32;;
29546;SDS011;40782;47.264;11.330;2023-02-01T11:08:48;24.63;;;11.57;;
29546;SDS011;40782;47.264;11.330;2023-02-01T11:11:18;25.63;;;10.43;;
29546;SDS011;40782;47.264;11.330;2023-02-01T11:13:51;22.83;;;9.85;;
29546;SDS011;40782;47.264;11.330;2023-02-01T11:16:20;31.85;;;12.35;;
29546;SDS011;40782;47.264;11.330;2023-02-01T11:18:47;27.00;;;11.25;;
29546;SDS011;40782;47.264;11.330;2023-02-01T11:21:22;25.58;;;11.27;;
29546;SDS011;40782;47.264;11.330;2023-02-01T11:23:49;22.77;;;10.70;;
29546;SDS011;40782;47.264;11.330;2023-02-01T11:26:20;25.08;;;10.68;;
29546;SDS011;40782;47.264;11.330;2023-02-01T11:28:53;30.38;;;11.25;;
29546;SDS011;40782;47.264;11.330;2023-02-01T11:31:23;32.35;;;10.45;;
29546;SDS011;40782;47.264;11.330;2023-02-01T11:33:53;26.27;;;10.23;;
29546;SDS011;40782;47.264;11.330;2023-02-01T11:36:28;16.27;;;9.07;;
29546;SDS011;40782;47.264;11.330;2023-02-01T11:39:08;16.90;;;9.50;;
29546;SDS011;40782;47.264;11.330;2023-02-01T11:42:01;22.52;;;9.45;;
29546;SDS011;40782;47.264;11.330;2023-02-01T11:44:32;21.25;;;9.45;;
29546;SDS011;40782;47.264;11.330;2023-02-01T11:47:24;18.48;;;9.60;;
29546;SDS011;40782;47.264;11.330;2023-02-01T11:49:53;20.23;;;10.68;;
29546;SDS011;40782;47.264;11.330;2023-02-01T11:52:27;29.35;;;10.20;;
29546;SDS011;40782;47.264;11.330;2023-02-01T11:55:11;26.73;;;10.45;;
29546;SDS011;40782;47.264;11.330;2023-02-01T11:57:49;33.83;;;11.32;;
29546;SDS011;40782;47.264;11.330;2023-02-01T12:00:31;30.58;;;12.77;;
29546;SDS011;40782;47.264;11.330;2023-02-01T12:03:15;30.25;;;11.38;;
29546;SDS011;40782;47.264;11.330;2023-02-01T12:06:13;34.38;;;11.40;;
29546;SDS011;40782;47.264;11.330;2023-02-01T12:08:56;15.65;;;6.55;;
29546;SDS011;40782;47.264;11.330;2023-02-01T12:14:19;22.00;;;8.65;;
29546;SDS011;40782;47.264;11.330;2023-02-01T12:17:05;3.72;;;2.42;;
29546;SDS011;40782;47.264;11.330;2023-02-01T12:19:47;8.23;;;2.17;;
29546;SDS011;40782;47.264;11.330;2023-02-01T12:22:31;6.63;;;3.10;;
29546;SDS011;40782;47.264;11.330;2023-02-01T12:25:20;3.22;;;1.17;;
29546;SDS011;40782;47.264;11.330;2023-02-01T12:28:07;1.23;;;1.08;;
29546;SDS011;40782;47.264;11.330;2023-02-01T12:30:48;1.38;;;1.00;;
29546;SDS011;40782;47.264;11.330;2023-02-01T12:33:31;0.95;;;0.50;;
29546;SDS011;40782;47.264;11.330;2023-02-01T12:36:13;0.60;;;0.60;;
29546;SDS011;40782;47.264;11.330;2023-02-01T12:38:46;1.42;;;0.80;;
29546;SDS011;40782;47.264;11.330;2023-02-01T12:41:23;1.90;;;0.60;;
29546;SDS011;40782;47.264;11.330;2023-02-01T12:44:03;0.32;;;0.32;;
29546;SDS011;40782;47.264;11.330;2023-02-01T12:46:35;2.58;;;0.32;;
29546;SDS011;40782;47.264;11.330;2023-02-01T12:49:09;0.30;;;0.30;;
29546;SDS011;40782;47.264;11.330;2023-02-01T12:51:41;0.38;;;0.38;;
29546;SDS011;40782;47.264;11.330;2023-02-01T12:54:13;0.40;;;0.40;;
29546;SDS011;40782;47.264;11.330;2023-02-01T12:56:49;0.77;;;0.40;;
29546;SDS011;40782;47.264;11.330;2023-02-01T12:59:21;0.20;;;0.20;;
29546;SDS011;40782;47.264;11.330;2023-02-01T13:01:54;0.50;;;0.50;;
29546;SDS011;40782;47.264;11.330;2023-02-01T13:04:29;0.20;;;0.20;;
29546;SDS011;40782;47.264;11.330;2023-02-01T13:07:03;1.65;;;0.30;;
29546;SDS011;40782;47.264;11.330;2023-02-01T13:09:37;1.05;;;0.40;;
29546;SDS011;40782;47.264;11.330;2023-02-01T13:12:20;0.43;;;0.43;;
29546;SDS011;40782;47.264;11.330;2023-02-01T13:14:52;0.50;;;0.50;;
29546;SDS011;40782;47.264;11.330;2023-02-01T13:17:24;0.40;;;0.40;;
29546;SDS011;40782;47.264;11.330;2023-02-01T13:19:56;0.30;;;0.20;;
29546;SDS011;40782;47.264;11.330;2023-02-01T13:22:27;0.75;;;0.32;;
29546;SDS011;40782;47.264;11.330;2023-02-01T13:24:58;2.78;;;0.30;;
29546;SDS011;40782;47.264;11.330;2023-02-01T13:27:30;0.40;;;0.40;;
29546;SDS011;40782;47.264;11.330;2023-02-01T13:29:59;0.40;;;0.40;;
29546;SDS011;40782;47.264;11.330;2023-02-01T13:32:35;0.30;;;0.30;;
29546;SDS011;40782;47.264;11.330;2023-02-01T13:35:33;0.82;;;0.50;;
29546;SDS011;40782;47.264;11.330;2023-02-01T13:38:32;0.45;;;0.40;;
29546;SDS011;40782;47.264;11.330;2023-02-01T13:41:25;0.68;;;0.43;;
29546;SDS011;40782;47.264;11.330;2023-02-01T13:44:02;1.83;;;0.52;;
29546;SDS011;40782;47.264;11.330;2023-02-01T13:46:37;0.43;;;0.40;;
29546;SDS011;40782;47.264;11.330;2023-02-01T13:49:13;0.30;;;0.30;;
29546;SDS011;40782;47.264;11.330;2023-02-01T13:51:47;0.73;;;0.40;;
29546;SDS011;40782;47.264;11.330;2023-02-01T13:54:30;0.30;;;0.30;;
29546;SDS011;40782;47.264;11.330;2023-02-01T13:57:00;0.35;;;0.35;;
29546;SDS011;40782;47.264;11.330;2023-02-01T14:03:01;2.90;;;0.50;;
29546;SDS011;40782;47.264;11.330;2023-02-01T14:06:00;0.30;;;0.30;;
29546;SDS011;40782;47.264;11.330;2023-02-01T14:08:39;0.82;;;0.45;;
29546;SDS011;40782;47.264;11.330;2023-02-01T14:23:18;0.30;;;0.30;;
29546;SDS011;40782;47.264;11.330;2023-02-01T14:28:57;0.40;;;0.40;;
29546;SDS011;40782;47.264;11.330;2023-02-01T14:31:43;0.30;;;0.30;;
29546;SDS011;40782;47.264;11.330;2023-02-01T14:34:17;1.65;;;0.30;;
29546;SDS011;40782;47.264;11.330;2023-02-01T14:36:50;0.77;;;0.40;;
29546;SDS011;40782;47.264;11.330;2023-02-01T14:39:22;0.30;;;0.30;;
29546;SDS011;40782;47.264;11.330;2023-02-01T14:41:55;0.38;;;0.38;;
29546;SDS011;40782;47.264;11.330;2023-02-01T14:44:26;1.10;;;0.30;;
29546;SDS011;40782;47.264;11.330;2023-02-01T14:49:55;0.30;;;0.30;;
29546;SDS011;40782;47.264;11.330;2023-02-01T14:52:29;0.30;;;0.30;;
29546;SDS011;40782;47.264;11.330;2023-02-01T14:55:03;0.30;;;0.30;;
29546;SDS011;40782;47.264;11.330;2023-02-01T14:57:33;0.20;;;0.20;;
29546;SDS011;40782;47.264;11.330;2023-02-01T15:00:06;1.08;;;0.40;;
29546;SDS011;40782;47.264;11.330;2023-02-01T15:02:42;1.00;;;0.40;;
29546;SDS011;40782;47.264;11.330;2023-02-01T15:05:25;0.20;;;0.20;;
29546;SDS011;40782;47.264;11.330;2023-02-01T15:08:03;0.85;;;0.45;;
29546;SDS011;40782;47.264;11.330;2023-02-01T15:10:43;0.30;;;0.30;;
29546;SDS011;40782;47.264;11.330;2023-02-01T15:13:21;0.52;;;0.30;;
29546;SDS011;40782;47.264;11.330;2023-02-01T15:16:02;0.98;;;0.57;;
29546;SDS011;40782;47.264;11.330;2023-02-01T15:18:31;1.65;;;0.40;;
29546;SDS011;40782;47.264;11.330;2023-02-01T15:20:59;4.28;;;0.60;;
29546;SDS011;40782;47.264;11.330;2023-02-01T15:23:28;0.30;;;0.30;;